Time;durP1;ratioP1;P1;durP2;ratioP2;P2;SDS_P1;SDS_P2;PMS_P1;PMS_P2;Temp;Humidity;BMP_temperature;BMP_pressure;BME280_temperature;BME280_humidity;BME280_pressure;Samples;Min_cycle;Max_cycle;Signal;HPM_P1;HPM_P2
2023/04/07 00:00:47;;;;;;;;;;;;;;;1.03;73.92;102966.09;5053933;28;20007;-64
2023/04/07 00:03:13;;;;;;;;;;;;;;;1.02;73.74;102969.63;5052223;28;19921;-67
2023/04/07 00:05:38;;;;;;;;;;;;;;;1.03;74.18;102958.22;5053636;28;19917;-68
2023/04/07 00:08:03;;;;;;;;;;;;;;;1.01;73.38;102963.50;5053729;28;19913;-66
2023/04/07 00:10:29;;;;;;;;;;;;;;;1.01;73.62;102962.66;5052313;28;19913;-65
2023/04/07 00:12:54;;;;;;;;;;;;;;;0.99;73.53;102960.09;5053447;28;20007;-68
2023/04/07 00:15:20;;;;;;;;;;;;;;;1.01;73.22;102957.41;5053329;28;20265;-64
2023/04/07 00:17:45;;;;;;;;;;;;;;;0.99;72.83;102959.22;5054685;28;20422;-67
2023/04/07 00:20:11;;;;;;;;;;;;;;;0.95;73.73;102962.84;5054436;28;19912;-66
2023/04/07 00:22:36;;;;;;;;;;;;;;;0.88;74.50;102970.91;5053606;28;19942;-66
2023/04/07 00:25:01;;;;;;;;;;;;;;;0.86;74.03;102964.81;5054171;28;19971;-67
2023/04/07 00:27:27;;;;;;;;;;;;;;;0.87;73.98;102957.84;5053134;28;20357;-66
2023/04/07 00:29:54;;;;;;;;;;;;;;;0.87;73.59;102963.09;5052810;28;19944;-69
2023/04/07 00:32:20;;;;;;;;;;;;;;;0.81;74.02;102956.25;5053251;28;19975;-67
2023/04/07 00:34:45;;;;;;;;;;;;;;;0.83;74.02;102949.19;5053205;28;20372;-67
2023/04/07 00:37:15;;;;;;;;;;;;;;;0.80;74.21;102956.28;5052901;28;19960;-66
2023/04/07 00:39:40;;;;;;;;;;;;;;;0.77;73.83;102959.88;5053184;28;20461;-65
2023/04/07 00:42:06;;;;;;;;;;;;;;;0.76;74.32;102957.28;5052902;28;19913;-66
2023/04/07 00:44:32;;;;;;;;;;;;;;;0.76;74.30;102958.16;5052799;28;19917;-67
2023/04/07 00:46:58;;;;;;;;;;;;;;;0.75;74.54;102955.56;5052995;28;19959;-67
2023/04/07 00:49:24;;;;;;;;;;;;;;;0.75;74.30;102955.56;5053464;28;20001;-67
2023/04/07 00:51:50;;;;;;;;;;;;;;;0.72;73.85;102955.66;5052959;28;19912;-66
2023/04/07 00:54:16;;;;;;;;;;;;;;;0.70;74.24;102947.84;5035142;28;19912;-66
2023/04/07 00:56:42;;;;;;;;;;;;;;;0.68;74.48;102949.66;5052749;28;19952;-65
2023/04/07 00:59:07;;;;;;;;;;;;;;;0.68;74.50;102952.28;5051334;28;19995;-66
2023/04/07 01:01:39;;;;;;;;;;;;;;;0.63;75.52;102950.72;5051205;28;19916;-66
2023/04/07 01:04:11;;;;;;;;;;;;;;;0.60;75.49;102951.66;5052773;28;19926;-69
2023/04/07 01:06:39;;;;;;;;;;;;;;;0.60;75.29;102951.66;5052863;28;19919;-71
2023/04/07 01:09:10;;;;;;;;;;;;;;;0.59;75.38;102955.19;5052514;28;19948;-67
2023/04/07 01:11:40;;;;;;;;;;;;;;;0.61;75.22;102954.22;5052531;28;19917;-67
2023/04/07 01:14:05;;;;;;;;;;;;;;;0.59;75.14;102948.19;5052980;28;19913;-67
2023/04/07 01:16:34;;;;;;;;;;;;;;;0.54;75.82;102951.81;5051334;28;20261;-68
2023/04/07 01:19:03;;;;;;;;;;;;;;;0.50;75.77;102953.66;5052799;28;20019;-67
2023/04/07 01:21:32;;;;;;;;;;;;;;;0.46;76.32;102951.19;5052699;28;20407;-67
2023/04/07 01:24:15;;;;;;;;;;;;;;;0.43;76.26;102951.28;5052288;28;20388;-67
2023/04/07 01:26:41;;;;;;;;;;;;;;;0.40;76.66;102948.75;5051361;28;19913;-68
2023/04/07 01:29:13;;;;;;;;;;;;;;;0.38;77.16;102953.19;5052423;28;20298;-68
2023/04/07 01:31:40;;;;;;;;;;;;;;;0.32;77.81;102951.59;5054698;28;20391;-67
2023/04/07 01:34:08;;;;;;;;;;;;;;;0.28;78.08;102956.03;5056506;28;19913;-66
2023/04/07 01:36:33;;;;;;;;;;;;;;;0.25;78.43;102950.03;5055157;28;19920;-67
2023/04/07 01:38:59;;;;;;;;;;;;;;;0.24;78.49;102949.16;5058206;28;19917;-66
2023/04/07 01:41:25;;;;;;;;;;;;;;;0.24;78.36;102951.78;5058918;28;19939;-68
2023/04/07 01:43:52;;;;;;;;;;;;;;;0.23;78.07;102947.44;5060233;28;20019;-67
2023/04/07 01:46:17;;;;;;;;;;;;;;;0.21;78.52;102948.41;5059199;28;20000;-67
2023/04/07 01:48:42;;;;;;;;;;;;;;;0.17;79.12;102947.63;5056258;28;20382;-68
2023/04/07 01:51:10;;;;;;;;;;;;;;;0.16;79.69;102952.91;5056054;28;19913;-67
2023/04/07 01:53:37;;;;;;;;;;;;;;;0.17;78.99;102957.25;5056238;28;19962;-66
2023/04/07 01:56:03;;;;;;;;;;;;;;;0.18;79.25;102962.44;5056302;28;19917;-67
2023/04/07 01:58:28;;;;;;;;;;;;;;;0.18;78.92;102959.81;5055908;28;20404;-67
2023/04/07 02:00:53;;;;;;;;;;;;;;;0.18;78.81;102953.72;5055903;28;19913;-68
2023/04/07 02:03:39;;;;;;;;;;;;;;;0.16;78.49;102960.78;5056562;28;19916;-66
2023/04/07 02:06:06;;;;;;;;;;;;;;;0.15;78.41;102959.91;5059257;28;20414;-67
2023/04/07 02:08:32;;;;;;;;;;;;;;;0.16;78.28;102951.16;5057422;28;19924;-66
2023/04/07 02:10:59;;;;;;;;;;;;;;;0.14;78.52;102958.19;5056824;28;19913;-68
2023/04/07 02:13:26;;;;;;;;;;;;;;;0.12;79.01;102956.50;5056529;28;19913;-68
2023/04/07 02:15:53;;;;;;;;;;;;;;;0.08;79.02;102953.13;5038927;28;19987;-67
2023/04/07 02:18:19;;;;;;;;;;;;;;;0.07;79.17;102948.78;5055462;28;20062;-67
2023/04/07 02:20:46;;;;;;;;;;;;;;;0.07;79.18;102954.03;5055748;28;20440;-68
2023/04/07 02:23:11;;;;;;;;;;;;;;;0.07;79.17;102955.78;5056670;28;19916;-68
2023/04/07 02:25:37;;;;;;;;;;;;;;;0.03;79.40;102957.63;5054789;28;20306;-67
2023/04/07 02:28:03;;;;;;;;;;;;;;;-0.02;80.00;102956.88;5056253;28;19938;-67
2023/04/07 02:30:28;;;;;;;;;;;;;;;-0.01;80.11;102958.59;5054011;28;19912;-67
2023/04/07 02:32:54;;;;;;;;;;;;;;;0.00;80.01;102965.56;5055245;28;19966;-66
2023/04/07 02:35:19;;;;;;;;;;;;;;;-0.03;79.70;102960.41;5055426;28;20015;-66
2023/04/07 02:37:45;;;;;;;;;;;;;;;-0.04;79.93;102964.78;5055369;28;19939;-67
2023/04/07 02:40:11;;;;;;;;;;;;;;;-0.06;79.96;102961.34;5054093;28;20386;-68
2023/04/07 02:42:37;;;;;;;;;;;;;;;-0.09;80.42;102965.81;5054811;28;19912;-66
2023/04/07 02:45:04;;;;;;;;;;;;;;;-0.10;80.49;102969.31;5055251;28;19913;-67
2023/04/07 02:47:29;;;;;;;;;;;;;;;-0.12;80.22;102965.88;5054851;28;20062;-69
2023/04/07 02:49:54;;;;;;;;;;;;;;;-0.12;80.47;102958.03;5055150;28;20027;-67
2023/04/07 02:52:20;;;;;;;;;;;;;;;-0.13;80.55;102951.94;5055324;28;19913;-68
2023/04/07 02:54:46;;;;;;;;;;;;;;;-0.13;80.39;102954.56;5055025;28;19959;-67
2023/04/07 02:57:12;;;;;;;;;;;;;;;-0.10;80.38;102964.09;5053887;28;19912;-67
2023/04/07 02:59:37;;;;;;;;;;;;;;;-0.11;80.38;102957.13;5055177;28;19917;-67
2023/04/07 03:02:03;;;;;;;;;;;;;;;-0.13;80.58;102961.53;5054408;28;19928;-67
2023/04/07 03:04:28;;;;;;;;;;;;;;;-0.14;80.45;102962.44;5054642;28;19956;-66
2023/04/07 03:06:55;;;;;;;;;;;;;;;-0.14;80.67;102960.69;5054762;28;20019;-67
2023/04/07 03:09:20;;;;;;;;;;;;;;;-0.12;81.05;102966.75;5054472;28;20011;-66
2023/04/07 03:11:46;;;;;;;;;;;;;;;-0.10;80.81;102969.31;5054595;28;20020;-68
2023/04/07 03:14:11;;;;;;;;;;;;;;;-0.08;80.76;102963.13;5054589;28;19923;-68
2023/04/07 03:16:36;;;;;;;;;;;;;;;-0.06;80.88;102960.47;5054649;28;19920;-67
2023/04/07 03:19:02;;;;;;;;;;;;;;;-0.04;80.65;102964.78;5053211;28;19913;-68
2023/04/07 03:21:27;;;;;;;;;;;;;;;-0.02;80.91;102959.50;5054661;28;19913;-68
2023/04/07 03:23:53;;;;;;;;;;;;;;;0.01;80.52;102954.19;5053342;28;19917;-67
2023/04/07 03:26:18;;;;;;;;;;;;;;;0.03;80.64;102965.50;5054394;28;20288;-67
2023/04/07 03:28:44;;;;;;;;;;;;;;;0.04;80.21;102955.88;5054512;28;20011;-68
2023/04/07 03:31:09;;;;;;;;;;;;;;;0.04;80.69;102967.22;5054203;28;19999;-69
2023/04/07 03:33:34;;;;;;;;;;;;;;;0.01;80.55;102962.06;5054230;28;20006;-67
2023/04/07 03:36:00;;;;;;;;;;;;;;;-0.06;81.35;102958.72;5054545;28;20464;-67
2023/04/07 03:38:25;;;;;;;;;;;;;;;-0.07;81.35;102958.75;5054269;28;19912;-68
2023/04/07 03:40:51;;;;;;;;;;;;;;;-0.09;81.71;102968.41;5054327;28;19924;-67
2023/04/07 03:43:16;;;;;;;;;;;;;;;-0.09;81.66;102971.03;5056383;28;19919;-68
2023/04/07 03:45:41;;;;;;;;;;;;;;;-0.09;82.00;102968.41;5055446;28;20390;-69
2023/04/07 03:48:11;;;;;;;;;;;;;;;-0.05;81.77;102967.44;5055629;28;20250;-70
2023/04/07 03:50:36;;;;;;;;;;;;;;;-0.01;82.39;102969.06;5055048;28;19916;-68
2023/04/07 03:53:02;;;;;;;;;;;;;;;0.03;81.83;102964.63;5054258;28;20494;-68
2023/04/07 03:55:28;;;;;;;;;;;;;;;0.03;81.83;102970.72;5055393;28;20307;-69
2023/04/07 03:57:53;;;;;;;;;;;;;;;-0.01;81.71;102969.06;5055182;28;20459;-67
2023/04/07 04:00:18;;;;;;;;;;;;;;;0.08;81.04;102971.47;5063175;28;19952;-68
2023/04/07 04:02:44;;;;;;;;;;;;;;;0.14;81.66;102971.28;5060889;28;20011;-68
2023/04/07 04:05:12;;;;;;;;;;;;;;;0.17;81.57;102973.81;5062608;28;19962;-68
2023/04/07 04:07:37;;;;;;;;;;;;;;;0.21;81.14;102975.47;5062715;28;19916;-68
2023/04/07 04:10:02;;;;;;;;;;;;;;;0.20;81.07;102967.63;5064830;28;19920;-70
2023/04/07 04:12:28;;;;;;;;;;;;;;;0.17;81.29;102965.09;5041586;28;19913;-67
2023/04/07 04:14:54;;;;;;;;;;;;;;;0.15;81.49;102978.25;5061699;28;20280;-66
2023/04/07 04:17:19;;;;;;;;;;;;;;;0.12;81.31;102980.09;5014606;28;20258;-67
2023/04/07 04:19:44;;;;;;;;;;;;;;;0.15;81.61;102970.38;5065359;28;19913;-68
2023/04/07 04:22:10;;;;;;;;;;;;;;;0.23;81.36;102975.41;5049519;28;19948;-69
2023/04/07 04:24:35;;;;;;;;;;;;;;;0.24;81.39;102980.59;5060522;28;19969;-65
2023/04/07 04:27:00;;;;;;;;;;;;;;;0.23;81.12;102986.75;5049995;28;20421;-73
2023/04/07 04:29:26;;;;;;;;;;;;;;;0.29;80.92;102977.88;5033747;28;20020;-68
2023/04/07 04:35:13;;;;;;;;;;;;;;;0.41;80.78;102987.16;5055757;28;19919;-65
2023/04/07 04:37:38;;;;;;;;;;;;;;;0.45;81.02;102988.78;5058974;28;19913;-70
2023/04/07 04:40:07;;;;;;;;;;;;;;;0.46;81.06;102982.66;5072463;28;20391;-67
2023/04/07 04:42:33;;;;;;;;;;;;;;;0.45;81.15;102989.66;5057022;28;19923;-66
2023/04/07 04:44:58;;;;;;;;;;;;;;;0.47;80.86;102986.97;5063393;28;19916;-67
2023/04/07 04:47:23;;;;;;;;;;;;;;;0.48;80.40;102986.06;5049954;28;19916;-67
2023/04/07 04:49:48;;;;;;;;;;;;;;;0.51;80.44;102991.22;5048844;28;19912;-67
2023/04/07 04:52:14;;;;;;;;;;;;;;;0.52;80.79;102985.09;5060968;28;19919;-68
2023/04/07 04:54:39;;;;;;;;;;;;;;;0.52;79.85;102985.94;5067641;28;20415;-67
2023/04/07 04:57:04;;;;;;;;;;;;;;;0.58;80.57;102988.41;5055102;28;19942;-66
2023/04/07 04:59:30;;;;;;;;;;;;;;;0.64;80.13;102984.75;5073967;28;20371;-67
2023/04/07 05:01:55;;;;;;;;;;;;;;;0.71;80.31;102986.28;5076835;28;19916;-65
2023/04/07 05:04:21;;;;;;;;;;;;;;;0.77;79.74;102980.84;5073865;28;19931;-67
2023/04/07 05:06:46;;;;;;;;;;;;;;;0.80;79.45;102982.53;5073952;28;20372;-68
2023/04/07 05:09:12;;;;;;;;;;;;;;;0.86;79.70;102983.19;5072649;28;19920;-67
2023/04/07 05:11:37;;;;;;;;;;;;;;;0.93;79.42;102976.88;5073418;28;19920;-65
2023/04/07 05:14:02;;;;;;;;;;;;;;;1.02;79.23;102980.13;5052880;28;20433;-65
2023/04/07 05:16:28;;;;;;;;;;;;;;;1.09;78.92;102976.38;5074472;28;19916;-65
2023/04/07 05:18:53;;;;;;;;;;;;;;;1.16;78.61;102978.78;5069231;28;19913;-65
2023/04/07 05:21:21;;;;;;;;;;;;;;;1.13;77.07;102978.00;5057732;28;20015;-65
2023/04/07 05:23:46;;;;;;;;;;;;;;;1.18;77.92;102976.97;5068074;28;19912;-66
2023/04/07 05:26:12;;;;;;;;;;;;;;;1.24;77.64;102981.19;5072429;28;20322;-65
2023/04/07 05:28:37;;;;;;;;;;;;;;;1.32;77.89;102976.53;5068890;28;19913;-66
2023/04/07 05:31:02;;;;;;;;;;;;;;;1.35;76.03;102986.06;5050989;28;19916;-67
2023/04/07 05:33:28;;;;;;;;;;;;;;;1.36;76.01;102980.78;5050121;28;19966;-68
2023/04/07 05:35:53;;;;;;;;;;;;;;;1.37;75.57;102981.63;5052134;28;19913;-70
2023/04/07 05:38:19;;;;;;;;;;;;;;;1.45;76.06;102982.25;5052266;28;19917;-69
2023/04/07 05:40:46;;;;;;;;;;;;;;;1.50;76.30;102983.81;5051915;28;19975;-71
2023/04/07 05:43:11;;;;;;;;;;;;;;;1.57;75.75;102986.25;5051160;28;19963;-66
2023/04/07 05:45:36;;;;;;;;;;;;;;;1.63;75.10;102978.16;5051462;28;19963;-67
2023/04/07 05:48:02;;;;;;;;;;;;;;;1.66;75.39;102984.16;5052515;28;19913;-65
2023/04/07 05:50:27;;;;;;;;;;;;;;;1.70;74.60;102977.03;5052306;28;20015;-68
2023/04/07 05:52:52;;;;;;;;;;;;;;;1.77;74.78;102982.06;5050821;28;19913;-70
2023/04/07 05:55:18;;;;;;;;;;;;;;;1.82;74.49;102980.13;5051787;28;19913;-66
2023/04/07 05:57:43;;;;;;;;;;;;;;;1.90;74.74;102973.75;5034894;28;19919;-67
2023/04/07 06:00:09;;;;;;;;;;;;;;;1.99;74.62;102976.91;5053154;28;19913;-68
2023/04/07 06:02:35;;;;;;;;;;;;;;;2.05;73.57;102975.84;5051363;28;19917;-65
2023/04/07 06:05:00;;;;;;;;;;;;;;;2.09;73.15;102973.06;5053332;28;20364;-68
2023/04/07 06:07:25;;;;;;;;;;;;;;;2.15;73.20;102972.84;5052948;28;19963;-67
2023/04/07 06:09:50;;;;;;;;;;;;;;;2.21;72.78;102973.53;5053284;28;19920;-68
2023/04/07 06:12:16;;;;;;;;;;;;;;;2.28;73.43;102977.66;5052888;28;19959;-65
2023/04/07 06:14:41;;;;;;;;;;;;;;;2.33;72.04;102971.34;5033942;28;20435;-67
2023/04/07 06:17:10;;;;;;;;;;;;;;;2.36;71.78;102971.22;5053178;28;19920;-67
2023/04/07 06:19:35;;;;;;;;;;;;;;;2.40;71.38;102979.84;5054086;28;19913;-66
2023/04/07 06:22:00;;;;;;;;;;;;;;;2.47;70.93;102982.19;5055148;28;19959;-68
2023/04/07 06:24:26;;;;;;;;;;;;;;;2.55;71.41;102981.91;5055372;28;20011;-65
2023/04/07 06:26:51;;;;;;;;;;;;;;;2.59;70.69;102983.50;5055930;28;20375;-68
2023/04/07 06:29:17;;;;;;;;;;;;;;;2.62;69.81;102974.66;5055479;28;20357;-68
2023/04/07 06:31:42;;;;;;;;;;;;;;;2.56;70.29;102973.09;5055508;28;19982;-67
2023/04/07 06:34:07;;;;;;;;;;;;;;;2.60;70.39;102976.47;5037391;28;20070;-68
2023/04/07 06:36:33;;;;;;;;;;;;;;;2.68;70.24;102977.06;5037168;28;19913;-67
2023/04/07 06:38:59;;;;;;;;;;;;;;;2.76;69.43;102977.63;5055416;28;20416;-67
2023/04/07 06:41:24;;;;;;;;;;;;;;;2.86;69.86;102983.38;5055043;28;20002;-66
2023/04/07 06:43:52;;;;;;;;;;;;;;;2.91;69.13;102981.44;5055130;28;19913;-65
2023/04/07 06:46:18;;;;;;;;;;;;;;;3.03;69.31;102984.47;5055110;28;19912;-66
2023/04/07 06:48:43;;;;;;;;;;;;;;;3.12;68.76;102983.22;5055180;28;20012;-64
2023/04/07 06:51:09;;;;;;;;;;;;;;;3.23;68.74;102981.03;5055546;28;19955;-67
2023/04/07 06:53:34;;;;;;;;;;;;;;;3.31;68.23;102981.59;5054966;28;19933;-67
2023/04/07 06:56:06;;;;;;;;;;;;;;;3.34;67.63;102981.47;5054839;28;20396;-65
2023/04/07 06:58:32;;;;;;;;;;;;;;;3.38;67.17;102983.06;5054812;28;19916;-66
2023/04/07 07:00:59;;;;;;;;;;;;;;;3.43;66.35;102981.09;5054679;28;20411;-67
2023/04/07 07:03:26;;;;;;;;;;;;;;;3.49;66.96;102987.91;5050245;28;19924;-68
2023/04/07 07:05:57;;;;;;;;;;;;;;;3.54;66.40;102971.91;5040106;28;20314;-68
2023/04/07 07:08:24;;;;;;;;;;;;;;;3.65;66.40;102980.22;5056857;28;19920;-66
2023/04/07 07:10:49;;;;;;;;;;;;;;;3.74;65.76;102983.31;5074610;28;19912;-65
2023/04/07 07:13:14;;;;;;;;;;;;;;;3.83;65.81;102986.50;5074789;28;20405;-66
2023/04/07 07:15:40;;;;;;;;;;;;;;;3.87;64.99;102988.94;5074567;28;19916;-67
2023/04/07 07:18:05;;;;;;;;;;;;;;;3.94;63.94;102985.13;5074128;28;19913;-67
2023/04/07 07:20:31;;;;;;;;;;;;;;;4.01;64.13;102986.56;5056168;28;19923;-64
2023/04/07 07:22:57;;;;;;;;;;;;;;;4.03;62.76;102989.97;5074504;28;19913;-65
2023/04/07 07:25:25;;;;;;;;;;;;;;;4.07;62.79;102989.88;5056895;28;19954;-66
2023/04/07 07:27:52;;;;;;;;;;;;;;;4.15;64.50;102982.47;5074120;28;19913;-66
2023/04/07 07:30:21;;;;;;;;;;;;;;;4.25;63.68;102982.00;5073268;28;19978;-70
2023/04/07 07:32:46;;;;;;;;;;;;;;;4.37;63.14;102980.63;5073823;28;19912;-70
2023/04/07 07:35:11;;;;;;;;;;;;;;;4.48;62.92;102975.69;5055595;28;19938;-66
2023/04/07 07:37:37;;;;;;;;;;;;;;;4.57;61.37;102983.19;5074155;28;19919;-66
2023/04/07 07:40:02;;;;;;;;;;;;;;;4.68;61.83;102981.88;5073823;28;19920;-68
2023/04/07 07:42:29;;;;;;;;;;;;;;;4.72;60.92;102980.78;5074004;28;20257;-68
2023/04/07 07:44:55;;;;;;;;;;;;;;;4.79;61.50;102979.59;5073987;28;20317;-69
2023/04/07 07:47:20;;;;;;;;;;;;;;;4.85;60.92;102980.16;5073689;28;20363;-66
2023/04/07 07:49:45;;;;;;;;;;;;;;;4.86;58.00;102981.00;5073687;28;19912;-66
2023/04/07 07:52:15;;;;;;;;;;;;;;;4.97;60.04;102973.44;5073322;28;20488;-66
2023/04/07 07:54:41;;;;;;;;;;;;;;;5.09;59.79;102970.22;5073882;28;20287;-67
2023/04/07 07:57:06;;;;;;;;;;;;;;;5.18;58.04;102976.84;5073715;28;19916;-66
2023/04/07 07:59:31;;;;;;;;;;;;;;;5.14;56.93;102960.28;5073302;28;20291;-66
2023/04/07 08:01:57;;;;;;;;;;;;;;;5.31;58.12;102969.19;5073525;28;19924;-66
2023/04/07 08:04:22;;;;;;;;;;;;;;;5.43;58.99;102974.72;5074310;28;19916;-67
2023/04/07 08:06:48;;;;;;;;;;;;;;;5.49;56.54;102960.34;5074031;28;19922;-67
2023/04/07 08:09:14;;;;;;;;;;;;;;;5.55;56.14;102966.19;5073619;28;19920;-67
2023/04/07 08:11:39;;;;;;;;;;;;;;;5.64;56.85;102964.03;5074497;28;19912;-65
2023/04/07 08:14:04;;;;;;;;;;;;;;;5.74;56.12;102971.41;5074048;28;19919;-64
2023/04/07 08:16:30;;;;;;;;;;;;;;;5.74;54.02;102962.63;5074229;28;19944;-65
2023/04/07 08:18:55;;;;;;;;;;;;;;;5.78;54.26;102965.06;5073783;28;19912;-65
2023/04/07 08:21:20;;;;;;;;;;;;;;;5.86;53.58;102965.50;5055338;28;19919;-67
2023/04/07 08:23:46;;;;;;;;;;;;;;;5.93;53.57;102970.50;5073163;28;19913;-67
2023/04/07 08:26:11;;;;;;;;;;;;;;;5.99;53.46;102962.25;5072970;28;19916;-68
2023/04/07 08:28:36;;;;;;;;;;;;;;;6.02;52.64;102964.75;5072870;28;20011;-66
2023/04/07 08:31:02;;;;;;;;;;;;;;;6.06;53.44;102958.34;5072914;28;19975;-67
2023/04/07 08:33:27;;;;;;;;;;;;;;;6.03;52.11;102961.16;5073012;28;19945;-70
2023/04/07 08:35:52;;;;;;;;;;;;;;;6.05;53.50;102960.13;5073115;28;20474;-65
2023/04/07 08:38:18;;;;;;;;;;;;;;;6.18;53.41;102963.00;5073125;28;19920;-67
2023/04/07 08:40:43;;;;;;;;;;;;;;;6.25;52.12;102961.75;5072568;28;19912;-66
2023/04/07 08:43:09;;;;;;;;;;;;;;;6.34;52.44;102965.69;5072799;28;19962;-65
2023/04/07 08:45:37;;;;;;;;;;;;;;;6.39;51.74;102959.25;5072745;28;20435;-66
2023/04/07 08:48:03;;;;;;;;;;;;;;;6.47;52.78;102961.47;5072457;28;19938;-69
2023/04/07 08:50:29;;;;;;;;;;;;;;;6.41;51.32;102957.38;5072738;28;19919;-68
2023/04/07 08:52:55;;;;;;;;;;;;;;;6.41;51.12;102952.06;5072609;28;19999;-66
2023/04/07 08:55:21;;;;;;;;;;;;;;;6.52;52.62;102954.13;5072635;28;20245;-68
2023/04/07 08:57:47;;;;;;;;;;;;;;;6.64;51.82;102953.44;5072540;28;19958;-66
2023/04/07 09:00:13;;;;;;;;;;;;;;;6.72;50.85;102945.13;5072280;28;19943;-68
2023/04/07 09:02:40;;;;;;;;;;;;;;;6.73;50.46;102937.09;5072300;28;19924;-67
2023/04/07 09:05:06;;;;;;;;;;;;;;;6.76;50.98;102941.34;5072700;28;19917;-69
2023/04/07 09:07:33;;;;;;;;;;;;;;;6.75;49.60;102944.94;5072542;28;19928;-69
2023/04/07 09:09:59;;;;;;;;;;;;;;;6.82;50.06;102947.16;5072438;28;20360;-65
2023/04/07 09:12:26;;;;;;;;;;;;;;;6.91;49.03;102952.88;5072351;28;19913;-66
2023/04/07 09:14:52;;;;;;;;;;;;;;;6.95;48.33;102942.03;5072293;28;19917;-66
2023/04/07 09:17:17;;;;;;;;;;;;;;;6.99;48.56;102940.09;5072422;28;19920;-69
2023/04/07 09:19:42;;;;;;;;;;;;;;;7.00;47.97;102939.13;5072096;28;19912;-70
2023/04/07 09:22:11;;;;;;;;;;;;;;;7.04;47.68;102935.38;5072361;28;19912;-67
2023/04/07 09:24:36;;;;;;;;;;;;;;;7.08;47.69;102937.75;5072256;28;20015;-69
2023/04/07 09:27:16;;;;;;;;;;;;;;;7.15;48.26;102941.75;5072059;28;19956;-68
2023/04/07 09:29:42;;;;;;;;;;;;;;;7.23;47.08;102951.06;5072204;28;19958;-69
2023/04/07 09:32:08;;;;;;;;;;;;;;;7.26;47.23;102940.31;5072278;28;19912;-69
2023/04/07 09:34:35;;;;;;;;;;;;;;;7.20;46.22;102935.34;5071843;28;19935;-69
2023/04/07 09:37:00;;;;;;;;;;;;;;;7.18;47.56;102931.91;5068740;28;20360;-68
2023/04/07 09:39:26;;;;;;;;;;;;;;;7.19;47.42;102925.69;5060954;28;19963;-67
2023/04/07 09:41:51;;;;;;;;;;;;;;;7.32;47.18;102929.34;5071976;28;20443;-68
2023/04/07 09:44:17;;;;;;;;;;;;;;;7.33;46.28;102921.31;5071831;28;19955;-68
2023/04/07 09:46:52;;;;;;;;;;;;;;;7.30;46.25;102920.63;5066215;28;20390;-69
2023/04/07 09:49:19;;;;;;;;;;;;;;;7.31;46.38;102927.66;5064811;28;20368;-67
2023/04/07 09:51:58;;;;;;;;;;;;;;;7.35;46.75;102924.72;5064569;28;20458;-68
2023/04/07 09:54:50;;;;;;;;;;;;;;;7.38;45.26;102926.34;5066623;28;19935;-69
2023/04/07 09:57:17;;;;;;;;;;;;;;;7.47;46.41;102918.69;5062028;28;19912;-66
2023/04/07 09:59:43;;;;;;;;;;;;;;;7.54;45.75;102921.84;5065977;28;20016;-69
2023/04/07 10:02:09;;;;;;;;;;;;;;;7.58;45.59;102920.72;5063789;28;20355;-69
2023/04/07 10:04:34;;;;;;;;;;;;;;;7.54;45.43;102919.22;5066590;28;19916;-66
2023/04/07 10:07:00;;;;;;;;;;;;;;;7.55;45.04;102920.06;5069625;28;19916;-68
2023/04/07 10:09:26;;;;;;;;;;;;;;;7.54;44.85;102919.22;5066762;28;19913;-69
2023/04/07 10:11:52;;;;;;;;;;;;;;;7.52;45.04;102918.44;5068290;28;19952;-68
2023/04/07 10:14:18;;;;;;;;;;;;;;;7.53;45.82;102914.84;5066574;28;19981;-69
2023/04/07 10:16:45;;;;;;;;;;;;;;;7.58;45.62;102903.97;5069757;28;19924;-68
2023/04/07 10:19:10;;;;;;;;;;;;;;;7.63;45.56;102910.69;5068171;28;19925;-68
2023/04/07 10:21:37;;;;;;;;;;;;;;;7.68;45.96;102903.31;5058338;28;19924;-69
2023/04/07 10:24:18;;;;;;;;;;;;;;;7.72;45.50;102907.50;5064712;28;19917;-67
2023/04/07 10:26:46;;;;;;;;;;;;;;;7.67;45.53;102901.63;5067914;28;20366;-71
2023/04/07 10:29:13;;;;;;;;;;;;;;;7.72;46.45;102899.53;5067446;28;19916;-67
2023/04/07 10:31:39;;;;;;;;;;;;;;;7.75;45.78;102896.69;5065956;28;20015;-69
2023/04/07 10:34:05;;;;;;;;;;;;;;;7.84;46.83;102900.63;5063721;28;20422;-67
2023/04/07 10:36:30;;;;;;;;;;;;;;;7.81;44.46;102900.81;5064536;28;19916;-68
2023/04/07 10:39:08;;;;;;;;;;;;;;;7.83;45.29;102898.91;5064446;28;19912;-68
2023/04/07 10:41:35;;;;;;;;;;;;;;;7.82;46.08;102901.66;5063113;28;20365;-67
2023/04/07 10:44:02;;;;;;;;;;;;;;;7.90;46.14;102897.59;5065686;28;19916;-68
2023/04/07 10:46:47;;;;;;;;;;;;;;;7.95;46.76;102892.00;5063282;28;20015;-69
2023/04/07 10:49:12;;;;;;;;;;;;;;;8.01;47.10;102881.00;5069381;28;19935;-73
2023/04/07 10:51:38;;;;;;;;;;;;;;;8.07;45.45;102880.59;5061131;28;19913;-69
2023/04/07 10:54:24;;;;;;;;;;;;;;;8.05;45.60;102887.81;5064911;28;20319;-69
2023/04/07 10:57:01;;;;;;;;;;;;;;;8.03;46.40;102885.25;5066438;28;19912;-70
2023/04/07 10:59:28;;;;;;;;;;;;;;;8.13;47.20;102874.94;5073341;28;19966;-72
2023/04/07 11:02:08;;;;;;;;;;;;;;;8.18;45.59;102872.00;5057986;28;19916;-71
2023/04/07 11:04:37;;;;;;;;;;;;;;;8.17;45.45;102871.16;5065873;28;20372;-73
2023/04/07 11:07:02;;;;;;;;;;;;;;;8.13;45.77;102880.25;5061638;28;20301;-73
2023/04/07 11:09:27;;;;;;;;;;;;;;;8.18;45.16;102885.28;5062367;28;19913;-71
2023/04/07 11:11:53;;;;;;;;;;;;;;;8.26;46.53;102875.88;5065028;28;19995;-70
2023/04/07 11:14:28;;;;;;;;;;;;;;;8.32;44.68;102872.81;5063336;28;19913;-71
2023/04/07 11:16:53;;;;;;;;;;;;;;;8.41;46.72;102867.94;5045257;28;20011;-71
2023/04/07 11:19:19;;;;;;;;;;;;;;;8.50;45.95;102862.03;5062455;28;19999;-71
2023/04/07 11:21:44;;;;;;;;;;;;;;;8.51;46.24;102861.94;5048118;28;19920;-70
2023/04/07 11:24:10;;;;;;;;;;;;;;;8.49;44.76;102861.19;5063241;28;19965;-71
2023/04/07 11:26:39;;;;;;;;;;;;;;;8.46;44.67;102857.88;5063788;28;19920;-71
2023/04/07 11:29:04;;;;;;;;;;;;;;;8.47;44.18;102862.25;5065860;28;20332;-72
2023/04/07 11:31:31;;;;;;;;;;;;;;;8.48;45.06;102859.47;5045688;28;19948;-71
2023/04/07 11:34:01;;;;;;;;;;;;;;;8.54;45.10;102858.22;5061410;28;19974;-71
2023/04/07 11:36:53;;;;;;;;;;;;;;;8.57;44.72;102858.88;5064151;28;20326;-73
2023/04/07 11:39:20;;;;;;;;;;;;;;;8.47;44.33;102862.25;5063816;28;20299;-70
2023/04/07 11:41:46;;;;;;;;;;;;;;;8.44;43.61;102862.44;5062440;28;19966;-70
2023/04/07 11:44:13;;;;;;;;;;;;;;;8.45;44.00;102851.72;5065709;28;19952;-71
2023/04/07 11:46:53;;;;;;;;;;;;;;;8.47;44.26;102855.13;5064221;28;19913;-71
2023/04/07 11:49:19;;;;;;;;;;;;;;;8.54;44.61;102847.59;5063442;28;19924;-71
2023/04/07 11:51:45;;;;;;;;;;;;;;;8.57;44.59;102848.25;5061047;28;20424;-70
2023/04/07 11:54:11;;;;;;;;;;;;;;;8.56;44.40;102835.94;5062446;28;20256;-69
2023/04/07 11:56:46;;;;;;;;;;;;;;;8.62;44.64;102840.00;5073254;28;19919;-72
2023/04/07 11:59:19;;;;;;;;;;;;;;;8.59;43.75;102834.88;5083248;28;19923;-71
2023/04/07 12:01:45;;;;;;;;;;;;;;;8.60;44.18;102836.59;5086594;28;20596;-71
2023/04/07 12:04:14;;;;;;;;;;;;;;;8.65;44.29;102829.16;5079379;28;20321;-71
2023/04/07 12:06:41;;;;;;;;;;;;;;;8.72;45.13;102838.47;5066357;28;19924;-71
2023/04/07 12:09:07;;;;;;;;;;;;;;;8.62;43.89;102829.38;5048145;28;19912;-70
2023/04/07 12:11:33;;;;;;;;;;;;;;;8.61;44.24;102825.00;5043137;28;19916;-72
2023/04/07 12:13:59;;;;;;;;;;;;;;;8.59;44.20;102837.53;5058667;28;19913;-71
2023/04/07 12:16:24;;;;;;;;;;;;;;;8.57;44.30;102827.00;5046565;28;20384;-69
2023/04/07 12:18:53;;;;;;;;;;;;;;;8.62;44.19;102824.06;5064138;28;19918;-72
2023/04/07 12:21:18;;;;;;;;;;;;;;;8.60;43.81;102823.31;5064969;28;19912;-69
2023/04/07 12:23:46;;;;;;;;;;;;;;;8.66;44.08;102825.56;5063678;28;19919;-70
2023/04/07 12:26:11;;;;;;;;;;;;;;;8.67;43.98;102820.16;5064694;28;19917;-70
2023/04/07 12:28:37;;;;;;;;;;;;;;;8.67;43.41;102820.16;5045599;28;20011;-71
2023/04/07 12:31:03;;;;;;;;;;;;;;;8.66;43.62;102828.22;5063204;28;19994;-70
2023/04/07 12:33:28;;;;;;;;;;;;;;;8.74;44.52;102820.63;5064441;28;19916;-71
2023/04/07 12:35:55;;;;;;;;;;;;;;;8.77;44.00;102816.91;5029727;28;19912;-72
2023/04/07 12:38:21;;;;;;;;;;;;;;;8.79;44.96;102817.66;5043469;28;20006;-73
2023/04/07 12:40:46;;;;;;;;;;;;;;;8.81;44.43;102813.94;5060528;28;20428;-74
2023/04/07 12:43:11;;;;;;;;;;;;;;;8.82;45.28;102826.28;5060978;28;19912;-71
2023/04/07 12:45:37;;;;;;;;;;;;;;;8.80;45.51;102828.19;5064585;28;19963;-73